Tsabong, Botswana
Current Conditions -  °F | °C
As of 2:00 PM on Sunday 23 Nov 2014 (Local Time) from FAUP Reporting Station
Few Clouds Few Clouds  
Wind Chill: 90°   Ceiling: Unl
Heat Index: 90°   Visibility: 6mi
Dew Point: 39°   Wind: 9mph
Humidity: 17%   Direction: 280°W
Pressure: 29.94"   Gusts: NA
Location:  26.01°S, 22.4°E
Report Text: FAUP 231200Z 28008KT 9999 FEW050 32/04 Q1014 NOSIG
Loading
Personal Weather Stations






























Interactive Weather Map New forecast layout! Learn more

10-Day Weather Forecast

Advertisements
Track Severe Weather on mobile